sensor_id;sensor_type;location;lat;lon;timestamp;pressure;altitude;pressure_sealevel;temperature;humidity
6224;BME280;3145;42.726;23.342;2023-03-22T00:01:16;72464.19;;;-142.70;77.22
6224;BME280;3145;42.726;23.342;2023-03-22T00:03:44;72460.16;;;-142.70;77.24
6224;BME280;3145;42.726;23.342;2023-03-22T00:06:11;72452.13;;;-142.70;77.12
6224;BME280;3145;42.726;23.342;2023-03-22T00:08:38;72452.13;;;-142.70;77.06
6224;BME280;3145;42.726;23.342;2023-03-22T00:11:09;72458.16;;;-142.70;76.86
6224;BME280;3145;42.726;23.342;2023-03-22T00:13:38;72456.16;;;-142.70;76.85
6224;BME280;3145;42.726;23.342;2023-03-22T00:16:08;72460.16;;;-142.70;77.13
6224;BME280;3145;42.726;23.342;2023-03-22T00:18:35;72456.16;;;-142.70;77.03
6224;BME280;3145;42.726;23.342;2023-03-22T00:21:02;72460.16;;;-142.70;77.23
6224;BME280;3145;42.726;23.342;2023-03-22T00:23:29;72468.22;;;-142.70;77.00
6224;BME280;3145;42.726;23.342;2023-03-22T00:25:56;72462.19;;;-142.70;76.95
6224;BME280;3145;42.726;23.342;2023-03-22T00:28:23;72456.16;;;-142.70;76.87
6224;BME280;3145;42.726;23.342;2023-03-22T00:30:53;72452.13;;;-142.70;77.08
6224;BME280;3145;42.726;23.342;2023-03-22T00:33:20;72452.13;;;-142.70;77.18
6224;BME280;3145;42.726;23.342;2023-03-22T00:35:48;72448.09;;;-142.70;76.78
6224;BME280;3145;42.726;23.342;2023-03-22T00:38:15;72448.09;;;-142.70;77.06
6224;BME280;3145;42.726;23.342;2023-03-22T00:40:42;72452.13;;;-142.70;77.05
6224;BME280;3145;42.726;23.342;2023-03-22T00:43:09;72450.09;;;-142.70;77.06
6224;BME280;3145;42.726;23.342;2023-03-22T00:45:35;72448.09;;;-142.70;77.01
6224;BME280;3145;42.726;23.342;2023-03-22T00:48:07;72448.09;;;-142.70;77.08
6224;BME280;3145;42.726;23.342;2023-03-22T00:50:34;72444.06;;;-142.70;77.10
6224;BME280;3145;42.726;23.342;2023-03-22T00:53:01;72440.03;;;-142.70;77.17
6224;BME280;3145;42.726;23.342;2023-03-22T00:55:28;72438.00;;;-142.70;77.25
6224;BME280;3145;42.726;23.342;2023-03-22T00:57:54;72444.06;;;-142.70;77.12
6224;BME280;3145;42.726;23.342;2023-03-22T01:00:21;72440.03;;;-142.70;77.17
6224;BME280;3145;42.726;23.342;2023-03-22T01:02:48;72444.06;;;-142.70;77.46
6224;BME280;3145;42.726;23.342;2023-03-22T01:05:19;72448.09;;;-142.70;77.32
6224;BME280;3145;42.726;23.342;2023-03-22T01:07:47;72444.06;;;-142.70;77.27
6224;BME280;3145;42.726;23.342;2023-03-22T01:10:17;72452.13;;;-142.70;77.48
6224;BME280;3145;42.726;23.342;2023-03-22T01:12:44;72456.16;;;-142.70;77.35
6224;BME280;3145;42.726;23.342;2023-03-22T01:15:11;72444.06;;;-142.70;77.64
6224;BME280;3145;42.726;23.342;2023-03-22T01:17:38;72452.13;;;-142.70;77.75
6224;BME280;3145;42.726;23.342;2023-03-22T01:20:06;72452.13;;;-142.70;77.64
6224;BME280;3145;42.726;23.342;2023-03-22T01:22:35;72448.09;;;-142.70;77.75
6224;BME280;3145;42.726;23.342;2023-03-22T01:25:01;72444.06;;;-142.70;77.68
6224;BME280;3145;42.726;23.342;2023-03-22T01:27:28;72440.03;;;-142.70;77.74
6224;BME280;3145;42.726;23.342;2023-03-22T01:29:55;72450.09;;;-142.70;77.98
6224;BME280;3145;42.726;23.342;2023-03-22T01:32:22;72444.06;;;-142.70;77.81
6224;BME280;3145;42.726;23.342;2023-03-22T01:34:49;72448.09;;;-142.70;77.84
6224;BME280;3145;42.726;23.342;2023-03-22T01:37:16;72440.03;;;-142.70;77.92
6224;BME280;3145;42.726;23.342;2023-03-22T01:39:44;72448.09;;;-142.70;77.94
6224;BME280;3145;42.726;23.342;2023-03-22T01:42:12;72448.09;;;-142.70;77.80
6224;BME280;3145;42.726;23.342;2023-03-22T01:44:41;72448.09;;;-142.70;77.99
6224;BME280;3145;42.726;23.342;2023-03-22T01:47:08;72446.06;;;-142.70;78.09
6224;BME280;3145;42.726;23.342;2023-03-22T01:49:36;72464.19;;;-142.70;78.25
6224;BME280;3145;42.726;23.342;2023-03-22T01:52:07;72462.19;;;-142.70;78.12
6224;BME280;3145;42.726;23.342;2023-03-22T01:54:39;72460.16;;;-142.70;78.43
6224;BME280;3145;42.726;23.342;2023-03-22T01:57:09;72464.19;;;-142.70;78.26
6224;BME280;3145;42.726;23.342;2023-03-22T01:59:36;72468.22;;;-142.70;78.44
6224;BME280;3145;42.726;23.342;2023-03-22T02:02:04;72472.25;;;-142.70;78.14
6224;BME280;3145;42.726;23.342;2023-03-22T02:04:33;72476.28;;;-142.70;78.43
6224;BME280;3145;42.726;23.342;2023-03-22T02:07:01;72480.31;;;-142.70;78.51
6224;BME280;3145;42.726;23.342;2023-03-22T02:09:33;72476.28;;;-142.70;78.85
6224;BME280;3145;42.726;23.342;2023-03-22T02:12:12;72476.28;;;-142.70;79.04
6224;BME280;3145;42.726;23.342;2023-03-22T02:14:51;72470.25;;;-142.70;79.64
6224;BME280;3145;42.726;23.342;2023-03-22T02:17:29;72470.25;;;-142.70;79.94
6224;BME280;3145;42.726;23.342;2023-03-22T02:23:22;72464.19;;;-142.70;80.38
6224;BME280;3145;42.726;23.342;2023-03-22T02:26:21;72466.22;;;-142.70;80.72
6224;BME280;3145;42.726;23.342;2023-03-22T02:29:02;72466.22;;;-142.70;80.74
6224;BME280;3145;42.726;23.342;2023-03-22T02:31:57;72466.22;;;-142.70;80.72
6224;BME280;3145;42.726;23.342;2023-03-22T02:34:55;72472.25;;;-142.70;80.50
6224;BME280;3145;42.726;23.342;2023-03-22T02:37:49;72472.25;;;-142.70;80.50
6224;BME280;3145;42.726;23.342;2023-03-22T02:40:27;72472.25;;;-142.70;80.27
6224;BME280;3145;42.726;23.342;2023-03-22T02:43:01;72474.28;;;-142.70;80.18
6224;BME280;3145;42.726;23.342;2023-03-22T02:45:34;72484.34;;;-142.70;80.25
6224;BME280;3145;42.726;23.342;2023-03-22T02:48:10;72488.38;;;-142.70;80.27
6224;BME280;3145;42.726;23.342;2023-03-22T02:50:41;72486.34;;;-142.70;80.57
6224;BME280;3145;42.726;23.342;2023-03-22T02:53:14;72486.34;;;-142.70;80.71
6224;BME280;3145;42.726;23.342;2023-03-22T02:55:47;72488.38;;;-142.70;80.96
6224;BME280;3145;42.726;23.342;2023-03-22T02:58:18;72482.34;;;-142.70;80.99
6224;BME280;3145;42.726;23.342;2023-03-22T03:00:49;72482.34;;;-142.70;80.78
6224;BME280;3145;42.726;23.342;2023-03-22T03:03:18;72484.34;;;-142.70;80.72
6224;BME280;3145;42.726;23.342;2023-03-22T03:05:53;72480.31;;;-142.70;80.90
6224;BME280;3145;42.726;23.342;2023-03-22T03:08:21;72488.38;;;-142.70;80.85
6224;BME280;3145;42.726;23.342;2023-03-22T03:10:51;72476.28;;;-142.70;80.88
6224;BME280;3145;42.726;23.342;2023-03-22T03:13:19;72478.31;;;-142.70;80.74
6224;BME280;3145;42.726;23.342;2023-03-22T03:15:50;72478.31;;;-142.70;81.13
6224;BME280;3145;42.726;23.342;2023-03-22T03:18:26;72476.28;;;-142.70;81.21
6224;BME280;3145;42.726;23.342;2023-03-22T03:21:02;72474.28;;;-142.70;81.00
6224;BME280;3145;42.726;23.342;2023-03-22T03:23:37;72470.25;;;-142.70;80.95
6224;BME280;3145;42.726;23.342;2023-03-22T03:26:11;72484.34;;;-142.70;80.71
6224;BME280;3145;42.726;23.342;2023-03-22T03:28:46;72480.31;;;-142.70;80.53
6224;BME280;3145;42.726;23.342;2023-03-22T03:31:26;72482.34;;;-142.70;80.64
6224;BME280;3145;42.726;23.342;2023-03-22T03:34:01;72472.25;;;-142.70;80.62
6224;BME280;3145;42.726;23.342;2023-03-22T03:36:33;72484.34;;;-142.70;80.19
6224;BME280;3145;42.726;23.342;2023-03-22T03:39:05;72490.38;;;-142.70;80.22
6224;BME280;3145;42.726;23.342;2023-03-22T03:41:37;72492.41;;;-142.70;80.43
6224;BME280;3145;42.726;23.342;2023-03-22T03:44:05;72496.44;;;-142.70;80.47
6224;BME280;3145;42.726;23.342;2023-03-22T03:46:33;72488.38;;;-142.70;80.60
6224;BME280;3145;42.726;23.342;2023-03-22T03:49:01;72490.38;;;-142.70;80.76
6224;BME280;3145;42.726;23.342;2023-03-22T03:51:29;72494.41;;;-142.70;80.78
6224;BME280;3145;42.726;23.342;2023-03-22T03:53:56;72496.44;;;-142.70;80.82
6224;BME280;3145;42.726;23.342;2023-03-22T03:56:22;72488.38;;;-142.70;80.92
6224;BME280;3145;42.726;23.342;2023-03-22T03:58:51;72500.47;;;-142.70;80.75
6224;BME280;3145;42.726;23.342;2023-03-22T04:01:18;72492.41;;;-142.70;80.99
6224;BME280;3145;42.726;23.342;2023-03-22T04:03:45;72492.41;;;-142.70;80.80
6224;BME280;3145;42.726;23.342;2023-03-22T04:06:15;72494.41;;;-142.70;80.65
6224;BME280;3145;42.726;23.342;2023-03-22T04:08:41;72500.47;;;-142.70;80.78
6224;BME280;3145;42.726;23.342;2023-03-22T04:11:09;72492.41;;;-142.70;80.58
6224;BME280;3145;42.726;23.342;2023-03-22T04:13:36;72498.44;;;-142.70;80.54
6224;BME280;3145;42.726;23.342;2023-03-22T04:16:05;72504.50;;;-142.70;80.57
6224;BME280;3145;42.726;23.342;2023-03-22T04:18:32;72508.53;;;-142.70;80.52
6224;BME280;3145;42.726;23.342;2023-03-22T04:20:59;72508.53;;;-142.70;80.60
6224;BME280;3145;42.726;23.342;2023-03-22T04:23:25;72508.53;;;-142.70;80.90
6224;BME280;3145;42.726;23.342;2023-03-22T04:25:52;72508.53;;;-142.70;80.47
6224;BME280;3145;42.726;23.342;2023-03-22T04:28:23;72512.56;;;-142.70;80.41
6224;BME280;3145;42.726;23.342;2023-03-22T04:30:51;72504.50;;;-142.70;80.45
6224;BME280;3145;42.726;23.342;2023-03-22T04:33:19;72504.50;;;-142.70;80.19
6224;BME280;3145;42.726;23.342;2023-03-22T04:35:47;72512.56;;;-142.70;79.92
6224;BME280;3145;42.726;23.342;2023-03-22T04:38:14;72504.50;;;-142.70;79.97
6224;BME280;3145;42.726;23.342;2023-03-22T04:40:41;72518.59;;;-142.70;80.89
6224;BME280;3145;42.726;23.342;2023-03-22T04:43:10;72514.56;;;-142.70;81.26
6224;BME280;3145;42.726;23.342;2023-03-22T04:45:37;72512.56;;;-142.70;81.13
6224;BME280;3145;42.726;23.342;2023-03-22T04:48:06;72504.50;;;-142.70;81.02
6224;BME280;3145;42.726;23.342;2023-03-22T04:50:36;72508.53;;;-142.70;80.60
6224;BME280;3145;42.726;23.342;2023-03-22T04:53:04;72504.50;;;-142.70;80.09
6224;BME280;3145;42.726;23.342;2023-03-22T04:55:30;72508.53;;;-142.70;79.83
6224;BME280;3145;42.726;23.342;2023-03-22T04:57:58;72508.53;;;-142.70;79.61
6224;BME280;3145;42.726;23.342;2023-03-22T05:00:25;72504.50;;;-142.70;79.67
6224;BME280;3145;42.726;23.342;2023-03-22T05:02:55;72512.56;;;-142.70;79.49
6224;BME280;3145;42.726;23.342;2023-03-22T05:05:22;72508.53;;;-142.70;79.19
6224;BME280;3145;42.726;23.342;2023-03-22T05:07:50;72516.56;;;-142.70;78.87
6224;BME280;3145;42.726;23.342;2023-03-22T05:10:17;72512.56;;;-142.70;78.89
6224;BME280;3145;42.726;23.342;2023-03-22T05:12:46;72510.53;;;-142.70;78.94
6224;BME280;3145;42.726;23.342;2023-03-22T05:15:12;72512.56;;;-142.70;78.79
6224;BME280;3145;42.726;23.342;2023-03-22T05:17:39;72516.56;;;-142.70;79.11
6224;BME280;3145;42.726;23.342;2023-03-22T05:20:07;72512.56;;;-142.70;79.11
6224;BME280;3145;42.726;23.342;2023-03-22T05:22:35;72518.59;;;-142.70;79.36
6224;BME280;3145;42.726;23.342;2023-03-22T05:25:07;72518.59;;;-142.70;79.23
6224;BME280;3145;42.726;23.342;2023-03-22T05:27:34;72516.56;;;-142.70;79.23
6224;BME280;3145;42.726;23.342;2023-03-22T05:30:04;72516.56;;;-142.70;79.15
6224;BME280;3145;42.726;23.342;2023-03-22T05:32:31;72516.56;;;-142.70;78.97
6224;BME280;3145;42.726;23.342;2023-03-22T05:34:58;72520.59;;;-142.70;78.84
6224;BME280;3145;42.726;23.342;2023-03-22T05:37:29;72532.69;;;-142.70;79.12
6224;BME280;3145;42.726;23.342;2023-03-22T05:39:55;72528.66;;;-142.70;79.31
6224;BME280;3145;42.726;23.342;2023-03-22T05:42:23;72514.56;;;-142.70;79.34
6224;BME280;3145;42.726;23.342;2023-03-22T05:44:50;72508.53;;;-142.70;79.39
6224;BME280;3145;42.726;23.342;2023-03-22T05:47:17;72502.47;;;-142.70;79.35
6224;BME280;3145;42.726;23.342;2023-03-22T05:49:43;72504.50;;;-142.70;79.26
6224;BME280;3145;42.726;23.342;2023-03-22T05:52:11;72500.47;;;-142.70;79.23
6224;BME280;3145;42.726;23.342;2023-03-22T05:54:38;72508.53;;;-142.70;79.20
6224;BME280;3145;42.726;23.342;2023-03-22T05:57:04;72508.53;;;-142.70;79.34
6224;BME280;3145;42.726;23.342;2023-03-22T05:59:32;72508.53;;;-142.70;79.40
6224;BME280;3145;42.726;23.342;2023-03-22T06:01:59;72508.53;;;-142.70;79.26
6224;BME280;3145;42.726;23.342;2023-03-22T06:04:26;72500.47;;;-142.70;79.38
6224;BME280;3145;42.726;23.342;2023-03-22T06:06:53;72510.53;;;-142.70;79.36
6224;BME280;3145;42.726;23.342;2023-03-22T06:09:19;72504.50;;;-142.70;79.46
6224;BME280;3145;42.726;23.342;2023-03-22T06:11:46;72496.44;;;-142.70;79.36
6224;BME280;3145;42.726;23.342;2023-03-22T06:14:13;72496.44;;;-142.70;79.39
6224;BME280;3145;42.726;23.342;2023-03-22T06:16:41;72492.41;;;-142.70;79.23
6224;BME280;3145;42.726;23.342;2023-03-22T06:19:08;72492.41;;;-142.70;78.89
6224;BME280;3145;42.726;23.342;2023-03-22T06:21:35;72486.34;;;-142.70;78.83
6224;BME280;3145;42.726;23.342;2023-03-22T06:24:01;72486.34;;;-142.70;78.67
6224;BME280;3145;42.726;23.342;2023-03-22T06:26:28;72482.34;;;-142.70;78.63
6224;BME280;3145;42.726;23.342;2023-03-22T06:28:55;72472.25;;;-142.70;78.53
6224;BME280;3145;42.726;23.342;2023-03-22T06:31:22;72472.25;;;-142.70;78.47
6224;BME280;3145;42.726;23.342;2023-03-22T06:33:50;72466.22;;;-142.70;78.58
6224;BME280;3145;42.726;23.342;2023-03-22T06:36:17;72464.19;;;-142.70;78.61
6224;BME280;3145;42.726;23.342;2023-03-22T06:38:43;72468.22;;;-142.70;78.46
6224;BME280;3145;42.726;23.342;2023-03-22T06:41:10;72462.19;;;-142.70;78.34
6224;BME280;3145;42.726;23.342;2023-03-22T06:43:37;72456.16;;;-142.70;78.33
6224;BME280;3145;42.726;23.342;2023-03-22T06:46:04;72446.06;;;-142.70;78.26
6224;BME280;3145;42.726;23.342;2023-03-22T06:48:31;72444.06;;;-142.70;77.86
6224;BME280;3145;42.726;23.342;2023-03-22T06:50:59;72433.97;;;-142.70;77.73
6224;BME280;3145;42.726;23.342;2023-03-22T06:53:25;72431.97;;;-142.70;77.58
6224;BME280;3145;42.726;23.342;2023-03-22T06:55:52;72423.91;;;-142.70;76.79
6224;BME280;3145;42.726;23.342;2023-03-22T06:58:19;72423.91;;;-142.70;76.37
6224;BME280;3145;42.726;23.342;2023-03-22T07:00:46;72427.94;;;-142.70;76.59
6224;BME280;3145;42.726;23.342;2023-03-22T07:03:12;72405.78;;;-142.70;76.47
6224;BME280;3145;42.726;23.342;2023-03-22T07:05:39;72395.72;;;-142.70;76.65
6224;BME280;3145;42.726;23.342;2023-03-22T07:08:07;72421.91;;;-142.70;75.92
6224;BME280;3145;42.726;23.342;2023-03-22T07:10:34;72399.75;;;-142.70;75.18
6224;BME280;3145;42.726;23.342;2023-03-22T07:13:01;72399.75;;;-142.70;74.86
6224;BME280;3145;42.726;23.342;2023-03-22T07:15:28;72399.75;;;-142.70;74.13
6224;BME280;3145;42.726;23.342;2023-03-22T07:17:55;72403.78;;;-142.70;73.39
6224;BME280;3145;42.726;23.342;2023-03-22T07:20:22;72403.78;;;-142.70;73.11
6224;BME280;3145;42.726;23.342;2023-03-22T07:22:49;72405.78;;;-142.70;72.33
6224;BME280;3145;42.726;23.342;2023-03-22T07:25:17;72403.78;;;-142.70;72.61
6224;BME280;3145;42.726;23.342;2023-03-22T07:27:44;72409.81;;;-142.70;72.77
6224;BME280;3145;42.726;23.342;2023-03-22T07:30:12;72407.81;;;-142.70;72.62
6224;BME280;3145;42.726;23.342;2023-03-22T07:32:39;72415.84;;;-142.70;72.45
6224;BME280;3145;42.726;23.342;2023-03-22T07:35:06;72431.97;;;-142.70;72.58
6224;BME280;3145;42.726;23.342;2023-03-22T07:37:33;72417.88;;;-142.70;72.97
6224;BME280;3145;42.726;23.342;2023-03-22T07:40:00;72427.94;;;-142.70;73.22
6224;BME280;3145;42.726;23.342;2023-03-22T07:42:29;72427.94;;;-142.70;73.21
6224;BME280;3145;42.726;23.342;2023-03-22T07:44:56;72427.94;;;-142.70;73.48
6224;BME280;3145;42.726;23.342;2023-03-22T07:47:23;72423.91;;;-142.70;73.32
6224;BME280;3145;42.726;23.342;2023-03-22T07:49:50;72419.88;;;-142.70;73.32
6224;BME280;3145;42.726;23.342;2023-03-22T07:52:17;72431.97;;;-142.70;73.12
6224;BME280;3145;42.726;23.342;2023-03-22T07:54:43;72427.94;;;-142.70;73.25
6224;BME280;3145;42.726;23.342;2023-03-22T07:57:10;72427.94;;;-142.70;72.89
6224;BME280;3145;42.726;23.342;2023-03-22T07:59:38;72440.03;;;-142.70;72.93
6224;BME280;3145;42.726;23.342;2023-03-22T08:02:05;72440.03;;;-142.70;73.05
6224;BME280;3145;42.726;23.342;2023-03-22T08:04:32;72440.03;;;-142.70;73.07
6224;BME280;3145;42.726;23.342;2023-03-22T08:06:59;72436.00;;;-142.70;73.31
6224;BME280;3145;42.726;23.342;2023-03-22T08:09:26;72431.97;;;-142.70;73.47
6224;BME280;3145;42.726;23.342;2023-03-22T08:11:53;72431.97;;;-142.70;73.22
6224;BME280;3145;42.726;23.342;2023-03-22T08:14:20;72429.97;;;-142.70;73.06
6224;BME280;3145;42.726;23.342;2023-03-22T08:16:48;72427.94;;;-142.70;73.12
6224;BME280;3145;42.726;23.342;2023-03-22T08:19:14;72423.91;;;-142.70;72.91
6224;BME280;3145;42.726;23.342;2023-03-22T08:21:41;72425.94;;;-142.70;72.75
6224;BME280;3145;42.726;23.342;2023-03-22T08:24:08;72425.94;;;-142.70;72.69
6224;BME280;3145;42.726;23.342;2023-03-22T08:26:35;72431.97;;;-142.70;72.39
6224;BME280;3145;42.726;23.342;2023-03-22T08:29:01;72431.97;;;-142.70;72.51
6224;BME280;3145;42.726;23.342;2023-03-22T08:31:28;72436.00;;;-142.70;72.69
6224;BME280;3145;42.726;23.342;2023-03-22T08:33:57;72427.94;;;-142.70;73.04
6224;BME280;3145;42.726;23.342;2023-03-22T08:36:23;72427.94;;;-142.70;73.18
6224;BME280;3145;42.726;23.342;2023-03-22T08:38:51;72427.94;;;-142.70;73.11
6224;BME280;3145;42.726;23.342;2023-03-22T08:41:18;72423.91;;;-142.70;72.81
6224;BME280;3145;42.726;23.342;2023-03-22T08:43:45;72411.81;;;-142.70;72.57
6224;BME280;3145;42.726;23.342;2023-03-22T08:46:11;72423.91;;;-142.70;72.23
6224;BME280;3145;42.726;23.342;2023-03-22T08:48:38;72419.88;;;-142.70;71.66
6224;BME280;3145;42.726;23.342;2023-03-22T08:51:07;72417.88;;;-142.70;71.11
6224;BME280;3145;42.726;23.342;2023-03-22T08:53:35;72415.84;;;-142.70;71.33
6224;BME280;3145;42.726;23.342;2023-03-22T08:56:02;72415.84;;;-142.70;70.89
6224;BME280;3145;42.726;23.342;2023-03-22T08:58:29;72417.88;;;-142.70;71.04
6224;BME280;3145;42.726;23.342;2023-03-22T09:00:55;72440.03;;;-142.70;71.34
6224;BME280;3145;42.726;23.342;2023-03-22T09:03:23;72427.94;;;-142.70;71.45
6224;BME280;3145;42.726;23.342;2023-03-22T09:05:50;72415.84;;;-142.70;71.49
6224;BME280;3145;42.726;23.342;2023-03-22T09:08:18;72403.78;;;-142.70;71.81
6224;BME280;3145;42.726;23.342;2023-03-22T09:10:45;72411.81;;;-142.70;72.01
6224;BME280;3145;42.726;23.342;2023-03-22T09:13:15;72403.78;;;-142.70;71.52
6224;BME280;3145;42.726;23.342;2023-03-22T09:15:42;72405.78;;;-142.70;71.02
6224;BME280;3145;42.726;23.342;2023-03-22T09:18:10;72417.88;;;-142.70;70.96
6224;BME280;3145;42.726;23.342;2023-03-22T09:20:37;72429.97;;;-142.70;70.70
6224;BME280;3145;42.726;23.342;2023-03-22T09:23:04;72429.97;;;-142.70;71.05
6224;BME280;3145;42.726;23.342;2023-03-22T09:25:32;72431.97;;;-142.70;71.52
6224;BME280;3145;42.726;23.342;2023-03-22T09:27:59;72431.97;;;-142.70;71.62
6224;BME280;3145;42.726;23.342;2023-03-22T09:30:26;72448.09;;;-142.70;71.20
6224;BME280;3145;42.726;23.342;2023-03-22T09:32:53;72446.06;;;-142.70;71.28
6224;BME280;3145;42.726;23.342;2023-03-22T09:35:20;72446.06;;;-142.70;71.21
6224;BME280;3145;42.726;23.342;2023-03-22T09:37:47;72438.00;;;-142.70;71.18
6224;BME280;3145;42.726;23.342;2023-03-22T09:40:14;72436.00;;;-142.70;71.28
6224;BME280;3145;42.726;23.342;2023-03-22T09:42:44;72444.06;;;-142.70;71.80
6224;BME280;3145;42.726;23.342;2023-03-22T09:45:15;72436.00;;;-142.70;71.49
6224;BME280;3145;42.726;23.342;2023-03-22T09:47:46;72423.91;;;-142.70;71.65
6224;BME280;3145;42.726;23.342;2023-03-22T09:50:18;72431.97;;;-142.70;71.39
6224;BME280;3145;42.726;23.342;2023-03-22T09:52:46;72429.97;;;-142.70;71.35
6224;BME280;3145;42.726;23.342;2023-03-22T09:55:18;72433.97;;;-142.70;71.32
6224;BME280;3145;42.726;23.342;2023-03-22T09:57:51;72425.94;;;-142.70;71.32
6224;BME280;3145;42.726;23.342;2023-03-22T10:00:26;72411.81;;;-142.70;71.81
6224;BME280;3145;42.726;23.342;2023-03-22T10:03:05;72403.78;;;-142.70;71.65
6224;BME280;3145;42.726;23.342;2023-03-22T10:05:39;72393.69;;;-142.70;71.75
6224;BME280;3145;42.726;23.342;2023-03-22T10:08:26;72385.63;;;-142.70;71.23
6224;BME280;3145;42.726;23.342;2023-03-22T10:10:56;72391.69;;;-142.70;70.84
6224;BME280;3145;42.726;23.342;2023-03-22T10:13:30;72405.78;;;-142.70;70.83
6224;BME280;3145;42.726;23.342;2023-03-22T10:16:01;72393.69;;;-142.70;70.24
6224;BME280;3145;42.726;23.342;2023-03-22T10:18:32;72395.72;;;-142.70;69.65
6224;BME280;3145;42.726;23.342;2023-03-22T10:21:03;72393.69;;;-142.70;69.27
6224;BME280;3145;42.726;23.342;2023-03-22T10:23:33;72405.78;;;-142.70;69.02
6224;BME280;3145;42.726;23.342;2023-03-22T10:26:03;72411.81;;;-142.70;69.37
6224;BME280;3145;42.726;23.342;2023-03-22T10:28:36;72403.78;;;-142.70;69.36
6224;BME280;3145;42.726;23.342;2023-03-22T10:31:05;72393.69;;;-142.70;69.14
6224;BME280;3145;42.726;23.342;2023-03-22T10:33:37;72391.69;;;-142.70;68.52
6224;BME280;3145;42.726;23.342;2023-03-22T10:36:10;72401.75;;;-142.70;68.41
6224;BME280;3145;42.726;23.342;2023-03-22T10:38:43;72387.66;;;-142.70;68.51
6224;BME280;3145;42.726;23.342;2023-03-22T10:41:12;72383.63;;;-142.70;68.33
6224;BME280;3145;42.726;23.342;2023-03-22T10:43:44;72387.66;;;-142.70;68.67
6224;BME280;3145;42.726;23.342;2023-03-22T10:46:15;72379.59;;;-142.70;68.86
6224;BME280;3145;42.726;23.342;2023-03-22T10:48:45;72387.66;;;-142.70;68.39
6224;BME280;3145;42.726;23.342;2023-03-22T10:51:20;72389.66;;;-142.70;68.55
6224;BME280;3145;42.726;23.342;2023-03-22T10:53:52;72401.75;;;-142.70;67.86
6224;BME280;3145;42.726;23.342;2023-03-22T10:56:20;72385.63;;;-142.70;67.84
6224;BME280;3145;42.726;23.342;2023-03-22T10:58:49;72393.69;;;-142.70;67.76
6224;BME280;3145;42.726;23.342;2023-03-22T11:01:24;72375.56;;;-142.70;67.57
6224;BME280;3145;42.726;23.342;2023-03-22T11:03:56;72373.56;;;-142.70;67.55
6224;BME280;3145;42.726;23.342;2023-03-22T11:06:25;72365.50;;;-142.70;67.47
6224;BME280;3145;42.726;23.342;2023-03-22T11:08:53;72359.44;;;-142.70;67.19
6224;BME280;3145;42.726;23.342;2023-03-22T11:11:21;72353.41;;;-142.70;67.25
6224;BME280;3145;42.726;23.342;2023-03-22T11:13:53;72355.41;;;-142.70;66.89
6224;BME280;3145;42.726;23.342;2023-03-22T11:16:21;72363.47;;;-142.70;66.83
6224;BME280;3145;42.726;23.342;2023-03-22T11:18:49;72359.44;;;-142.70;66.55
6224;BME280;3145;42.726;23.342;2023-03-22T11:21:16;72367.50;;;-142.70;66.14
6224;BME280;3145;42.726;23.342;2023-03-22T11:23:52;72363.47;;;-142.70;66.27
6224;BME280;3145;42.726;23.342;2023-03-22T11:26:27;72359.44;;;-142.70;66.48
6224;BME280;3145;42.726;23.342;2023-03-22T11:29:05;72359.44;;;-142.70;66.64
6224;BME280;3145;42.726;23.342;2023-03-22T11:31:51;72363.47;;;-142.70;66.20
6224;BME280;3145;42.726;23.342;2023-03-22T11:34:21;72367.50;;;-142.70;66.58
6224;BME280;3145;42.726;23.342;2023-03-22T11:36:48;72363.47;;;-142.70;66.99
6224;BME280;3145;42.726;23.342;2023-03-22T11:39:22;72359.44;;;-142.70;66.86
6224;BME280;3145;42.726;23.342;2023-03-22T11:41:51;72365.50;;;-142.70;66.97
6224;BME280;3145;42.726;23.342;2023-03-22T11:44:21;72359.44;;;-142.70;66.71
6224;BME280;3145;42.726;23.342;2023-03-22T11:46:51;72357.44;;;-142.70;66.69
6224;BME280;3145;42.726;23.342;2023-03-22T11:49:22;72359.44;;;-142.70;66.47
6224;BME280;3145;42.726;23.342;2023-03-22T11:51:52;72349.38;;;-142.70;66.45
6224;BME280;3145;42.726;23.342;2023-03-22T11:54:26;72355.41;;;-142.70;66.00
6224;BME280;3145;42.726;23.342;2023-03-22T11:56:57;72343.34;;;-142.70;66.00
6224;BME280;3145;42.726;23.342;2023-03-22T11:59:28;72345.34;;;-142.70;66.20
6224;BME280;3145;42.726;23.342;2023-03-22T12:01:59;72337.28;;;-142.70;65.73
6224;BME280;3145;42.726;23.342;2023-03-22T12:04:35;72345.34;;;-142.70;65.49
6224;BME280;3145;42.726;23.342;2023-03-22T12:07:08;72351.41;;;-142.70;65.87
6224;BME280;3145;42.726;23.342;2023-03-22T12:09:40;72339.31;;;-142.70;66.66
6224;BME280;3145;42.726;23.342;2023-03-22T12:12:11;72347.38;;;-142.70;67.16
6224;BME280;3145;42.726;23.342;2023-03-22T12:14:46;72319.16;;;-142.70;67.18
6224;BME280;3145;42.726;23.342;2023-03-22T12:17:17;72303.06;;;-142.70;67.09
6224;BME280;3145;42.726;23.342;2023-03-22T12:19:54;72337.28;;;-142.70;66.03
6224;BME280;3145;42.726;23.342;2023-03-22T12:22:28;72323.19;;;-142.70;65.89
6224;BME280;3145;42.726;23.342;2023-03-22T12:24:57;72315.13;;;-142.70;65.55
6224;BME280;3145;42.726;23.342;2023-03-22T12:27:26;72299.03;;;-142.70;65.94
6224;BME280;3145;42.726;23.342;2023-03-22T12:29:59;72305.06;;;-142.70;66.41
6224;BME280;3145;42.726;23.342;2023-03-22T12:32:32;72290.97;;;-142.70;66.25
6224;BME280;3145;42.726;23.342;2023-03-22T12:34:59;72292.97;;;-142.70;65.67
6224;BME280;3145;42.726;23.342;2023-03-22T12:37:29;72284.91;;;-142.70;65.88
6224;BME280;3145;42.726;23.342;2023-03-22T12:40:01;72286.94;;;-142.70;66.43
6224;BME280;3145;42.726;23.342;2023-03-22T12:42:34;72286.94;;;-142.70;66.63
6224;BME280;3145;42.726;23.342;2023-03-22T12:45:05;72264.78;;;-142.70;66.55
6224;BME280;3145;42.726;23.342;2023-03-22T12:47:39;72250.69;;;-142.70;66.34
6224;BME280;3145;42.726;23.342;2023-03-22T12:50:11;72236.56;;;-142.70;66.20
6224;BME280;3145;42.726;23.342;2023-03-22T12:52:41;72258.72;;;-142.70;65.69
6224;BME280;3145;42.726;23.342;2023-03-22T12:55:19;72262.75;;;-142.70;65.47
6224;BME280;3145;42.726;23.342;2023-03-22T12:57:47;72266.78;;;-142.70;64.57
6224;BME280;3145;42.726;23.342;2023-03-22T13:00:19;72270.81;;;-142.70;65.02
6224;BME280;3145;42.726;23.342;2023-03-22T13:02:57;72266.78;;;-142.70;65.37
6224;BME280;3145;42.726;23.342;2023-03-22T13:05:27;72270.81;;;-142.70;65.09